Airfield :







YOU CAN JOIN US ON...

 
LOGIN :

Register | Disclaimer

   EN    FR    IT 

 









Legend :    VFR   Marginal VFR   IFR   Intensive IFR   Very Intensive IFR
Visi :
Ceiling :
>= 8 km
>= 3000ft
5 to 8 km
1000 to 3000 ft
1500m to 5 km
500 to 1000 ft
800 to 1500m
200 to 500 ft
< 800m
< 200 ft
Symbols :   Thunderstorms  Fog  Heavy snow  Heavy precipitations  Wind > 20 kt






- Airport Elevation : 71 ft
- IATA code : YBC


CYBC - Baie Comeau

CURRENT METAR :
  • 071000Z AUTO 36005KT 9SM CLR 09/04 A2990 RMK SLP127

EXPIRED METARs :
  • 070900Z AUTO 36004KT 9SM CLR 05/03 A2988 RMK SLP120
  • 070800Z AUTO 01004KT 9SM CLR 07/04 A2987 RMK SLP116

TAF TAF CYBC
Valid from the 07 at 08:00 until the 07 at 20:00 UTC


070738Z 0708/0720 36005KT P6SM FEW080
BECMG 0710/0712 05009KT
BECMG 0713/0715 12012KT RMK FCST BASED ON AUTO OBS. NXT FCST BY 071400Z
CZUL FIR / North America



MET'MAP, your aeronautical weather chart ! - Copyright ORBIFLY December 2007 - Disclaimer

ORBIFLY MET'MAP TEAM :

Programming & Development : Alexandra Zaïnal
Concept & original design : Baudouin d'Aumeries
Assistance for programming : Marc-Olivier Méhu
Technical & hardware support : Manuel Goepfert

Contact : metmap@orbifly.com




SOURCES & CREDITS :

   NOAA